createdAt,value
2016-07-16T00:00:46.797Z,1019.08
2016-07-16T00:01:46.823Z,1019.09
2016-07-16T00:03:46.872Z,1019.12
2016-07-16T00:04:46.899Z,1019.15
2016-07-16T00:05:46.923Z,1019.16
2016-07-16T00:06:46.949Z,1019.16
2016-07-16T00:07:46.976Z,1019.14
2016-07-16T00:08:46.998Z,1019.2
2016-07-16T00:09:47.026Z,1019.15
2016-07-16T00:10:47.049Z,1019.15
2016-07-16T00:11:47.076Z,1019.16
2016-07-16T00:12:47.098Z,1019.13
2016-07-16T00:13:47.125Z,1019.12
2016-07-16T00:14:47.152Z,1019.17
2016-07-16T00:15:47.177Z,1019.14
2016-07-16T00:16:47.201Z,1019.17
2016-07-16T00:18:47.254Z,1019.18
2016-07-16T00:19:47.278Z,1019.18
2016-07-16T00:20:47.304Z,1019.19
2016-07-16T00:21:47.328Z,1019.19
2016-07-16T00:22:47.355Z,1019.25
2016-07-16T00:23:47.376Z,1019.19
2016-07-16T00:24:47.403Z,1019.17
2016-07-16T00:25:47.428Z,1019.2
2016-07-16T00:26:47.453Z,1019.2
2016-07-16T00:27:47.476Z,1019.21
2016-07-16T00:28:47.505Z,1019.22
2016-07-16T00:29:47.529Z,1019.21
2016-07-16T00:30:47.552Z,1019.22
2016-07-16T00:31:47.580Z,1019.21
2016-07-16T00:32:47.603Z,1019.21
2016-07-16T00:33:47.630Z,1019.22
2016-07-16T00:34:47.655Z,1019.23
2016-07-16T00:35:47.680Z,1019.23
2016-07-16T00:36:47.703Z,1019.3
2016-07-16T00:37:47.728Z,1019.29
2016-07-16T00:38:47.752Z,1019.28
2016-07-16T00:39:47.780Z,1019.26
2016-07-16T00:40:47.803Z,1019.24
2016-07-16T00:41:47.827Z,1019.28
2016-07-16T00:42:47.855Z,1019.29
2016-07-16T00:43:47.878Z,1019.28
2016-07-16T00:44:47.904Z,1019.24
2016-07-16T00:45:47.930Z,1019.17
2016-07-16T00:46:47.955Z,1019.22
2016-07-16T00:47:47.979Z,1019.25
2016-07-16T00:48:48.005Z,1019.26
2016-07-16T00:50:48.055Z,1019.29
2016-07-16T00:51:48.080Z,1019.25
2016-07-16T00:52:48.103Z,1019.26
2016-07-16T00:53:48.127Z,1019.25
2016-07-16T00:54:48.152Z,1019.22
2016-07-16T00:55:48.181Z,1019.22
2016-07-16T00:56:48.205Z,1019.23
2016-07-16T00:57:48.228Z,1019.23
2016-07-16T00:58:48.254Z,1019.24
2016-07-16T00:59:48.277Z,1019.23
2016-07-16T01:00:48.304Z,1019.23
2016-07-16T01:01:48.330Z,1019.25
2016-07-16T01:02:48.352Z,1019.25
2016-07-16T01:03:48.376Z,1019.19
2016-07-16T01:04:48.402Z,1019.23
2016-07-16T01:06:48.454Z,1019.22
2016-07-16T01:07:48.478Z,1019.22
2016-07-16T01:08:48.504Z,1019.26
2016-07-16T01:09:48.528Z,1019.23
2016-07-16T01:10:48.552Z,1019.23
2016-07-16T01:11:48.576Z,1019.24
2016-07-16T01:12:48.602Z,1019.19
2016-07-16T01:13:48.637Z,1019.18
2016-07-16T01:14:48.649Z,1019.17
2016-07-16T01:15:48.675Z,1019.15
2016-07-16T01:16:48.703Z,1019.15
2016-07-16T01:17:48.726Z,1019.14
2016-07-16T01:18:48.752Z,1019.14
2016-07-16T01:19:48.774Z,1019.16
2016-07-16T01:20:48.801Z,1019.15
2016-07-16T01:22:48.850Z,1019.14
2016-07-16T01:23:48.873Z,1019.19
2016-07-16T01:24:48.900Z,1019.2
2016-07-16T01:25:48.922Z,1019.2
2016-07-16T01:26:48.949Z,1019.2
2016-07-16T01:27:48.974Z,1019.16
2016-07-16T01:28:48.999Z,1019.17
2016-07-16T01:29:49.021Z,1019.14
2016-07-16T01:30:49.047Z,1019.15
2016-07-16T01:31:49.074Z,1019.14
2016-07-16T01:32:49.098Z,1019.12
2016-07-16T01:33:49.122Z,1019.12
2016-07-16T01:34:49.145Z,1019.14
2016-07-16T01:35:49.170Z,1019.1
2016-07-16T01:36:49.197Z,1019.11
2016-07-16T01:38:49.245Z,1019.2
2016-07-16T01:39:49.273Z,1019.16
2016-07-16T01:40:49.299Z,1019.14
2016-07-16T01:41:49.320Z,1019.13
2016-07-16T01:42:49.344Z,1019.15
2016-07-16T01:43:49.369Z,1019.13
2016-07-16T01:44:49.393Z,1019.1
2016-07-16T01:45:49.435Z,1019.14
2016-07-16T01:46:49.442Z,1019.09
2016-07-16T01:47:49.465Z,1019.09
2016-07-16T01:48:49.494Z,1019.11
2016-07-16T01:49:49.518Z,1019.07
2016-07-16T01:50:49.543Z,1019.11
2016-07-16T01:51:49.568Z,1019.12
2016-07-16T01:53:49.617Z,1019.09
2016-07-16T01:54:49.642Z,1019.04
2016-07-16T01:55:49.667Z,1019.07
2016-07-16T01:56:49.689Z,1019.1
2016-07-16T01:57:49.716Z,1019.06
2016-07-16T01:58:49.740Z,1019.03
2016-07-16T01:59:49.765Z,1018.99
2016-07-16T02:00:49.788Z,1018.99
2016-07-16T02:01:49.814Z,1018.99
2016-07-16T02:02:49.837Z,1018.99
2016-07-16T02:03:49.862Z,1018.95
2016-07-16T02:04:49.886Z,1018.95
2016-07-16T02:05:49.911Z,1018.95
2016-07-16T02:06:49.937Z,1018.94
2016-07-16T02:07:49.962Z,1018.97
2016-07-16T02:08:49.984Z,1018.98
2016-07-16T02:09:50.010Z,1018.98
2016-07-16T02:10:50.033Z,1018.97
2016-07-16T02:11:50.062Z,1018.96
2016-07-16T02:12:50.084Z,1018.97
2016-07-16T02:13:50.108Z,1018.98
2016-07-16T02:14:50.133Z,1018.95
2016-07-16T02:15:50.158Z,1018.97
2016-07-16T02:16:50.182Z,1018.97
2016-07-16T02:17:50.204Z,1018.99
2016-07-16T02:18:50.230Z,1018.96
2016-07-16T02:19:50.257Z,1019.05
2016-07-16T02:20:50.278Z,1018.98
2016-07-16T02:21:50.305Z,1018.98
2016-07-16T02:22:50.333Z,1018.97
2016-07-16T02:23:50.353Z,1018.98
2016-07-16T02:25:50.403Z,1018.93
2016-07-16T02:26:50.426Z,1018.92
2016-07-16T02:27:50.449Z,1018.89
2016-07-16T02:28:50.476Z,1018.89
2016-07-16T02:29:50.499Z,1018.88
2016-07-16T02:30:50.525Z,1018.86
2016-07-16T02:31:50.547Z,1018.91
2016-07-16T02:32:50.572Z,1018.89
2016-07-16T02:33:50.597Z,1018.86
2016-07-16T02:34:50.620Z,1018.86
2016-07-16T02:35:50.645Z,1018.84
2016-07-16T02:36:50.670Z,1018.83
2016-07-16T02:37:50.695Z,1018.88
2016-07-16T02:38:50.719Z,1018.86
2016-07-16T02:39:50.743Z,1018.85
2016-07-16T02:41:50.793Z,1018.89
2016-07-16T02:42:50.819Z,1018.89
2016-07-16T02:43:50.843Z,1018.95
2016-07-16T02:44:50.868Z,1018.88
2016-07-16T02:45:50.889Z,1018.86
2016-07-16T02:46:50.914Z,1018.92
2016-07-16T02:47:50.938Z,1018.97
2016-07-16T02:48:50.964Z,1018.93
2016-07-16T02:49:50.989Z,1018.97
2016-07-16T02:50:51.012Z,1018.96
2016-07-16T02:51:51.037Z,1018.96
2016-07-16T02:52:51.061Z,1018.97
2016-07-16T02:53:51.086Z,1019
2016-07-16T02:54:51.109Z,1018.99
2016-07-16T02:55:51.134Z,1018.99
2016-07-16T02:57:51.183Z,1018.99
2016-07-16T02:58:51.210Z,1019.02
2016-07-16T02:59:51.232Z,1019.01
2016-07-16T03:00:51.256Z,1019.02
2016-07-16T03:01:51.281Z,1019.08
2016-07-16T03:02:51.307Z,1019.06
2016-07-16T03:03:51.332Z,1019.11
2016-07-16T03:04:51.355Z,1019.03
2016-07-16T03:05:51.378Z,1019.03
2016-07-16T03:06:51.403Z,1019.06
2016-07-16T03:07:51.426Z,1019.09
2016-07-16T03:08:51.452Z,1019.07
2016-07-16T03:09:51.482Z,1019.07
2016-07-16T03:10:51.502Z,1019.06
2016-07-16T03:11:51.527Z,1019.05
2016-07-16T03:13:51.574Z,1019.08
2016-07-16T03:14:51.600Z,1019.09
2016-07-16T03:15:51.623Z,1019.09
2016-07-16T03:16:51.647Z,1019.11
2016-07-16T03:17:51.674Z,1019.12
2016-07-16T03:18:51.695Z,1019.12
2016-07-16T03:19:51.720Z,1019.13
2016-07-16T03:20:51.745Z,1019.14
2016-07-16T03:21:51.775Z,1019.15
2016-07-16T03:22:51.792Z,1019.21
2016-07-16T03:23:51.819Z,1019.2
2016-07-16T03:24:51.842Z,1019.25
2016-07-16T03:25:51.866Z,1019.2
2016-07-16T03:26:51.892Z,1019.19
2016-07-16T03:28:51.940Z,1019.26
2016-07-16T03:29:51.966Z,1019.29
2016-07-16T03:30:51.989Z,1019.28
2016-07-16T03:31:52.014Z,1019.26
2016-07-16T03:32:52.038Z,1019.27
2016-07-16T03:33:52.062Z,1019.26
2016-07-16T03:34:52.087Z,1019.25
2016-07-16T03:35:52.113Z,1019.27
2016-07-16T03:36:52.134Z,1019.21
2016-07-16T03:37:52.162Z,1019.2
2016-07-16T03:38:52.186Z,1019.26
2016-07-16T03:39:52.208Z,1019.25
2016-07-16T03:40:52.234Z,1019.26
2016-07-16T03:41:52.259Z,1019.28
2016-07-16T03:42:52.283Z,1019.3
2016-07-16T03:43:52.305Z,1019.31
2016-07-16T03:44:52.329Z,1019.31
2016-07-16T03:45:52.354Z,1019.32
2016-07-16T03:46:52.379Z,1019.33
2016-07-16T03:47:52.404Z,1019.37
2016-07-16T03:48:52.435Z,1019.34
2016-07-16T03:49:52.451Z,1019.36
2016-07-16T03:50:52.476Z,1019.34
2016-07-16T03:51:52.500Z,1019.35
2016-07-16T03:52:52.523Z,1019.31
2016-07-16T03:53:52.548Z,1019.37
2016-07-16T03:54:52.575Z,1019.33
2016-07-16T03:55:52.597Z,1019.32
2016-07-16T03:56:52.624Z,1019.34
2016-07-16T03:57:52.650Z,1019.34
2016-07-16T03:58:52.669Z,1019.35
2016-07-16T04:00:52.720Z,1019.35
2016-07-16T04:01:52.744Z,1019.39
2016-07-16T04:02:52.779Z,1019.39
2016-07-16T04:03:52.791Z,1019.4
2016-07-16T04:04:52.818Z,1019.42
2016-07-16T04:05:52.840Z,1019.44
2016-07-16T04:06:52.867Z,1019.46
2016-07-16T04:07:52.889Z,1019.45
2016-07-16T04:08:52.916Z,1019.47
2016-07-16T04:09:52.940Z,1019.49
2016-07-16T04:10:52.962Z,1019.49
2016-07-16T04:11:52.990Z,1019.5
2016-07-16T04:12:53.014Z,1019.48
2016-07-16T04:13:53.038Z,1019.46
2016-07-16T04:14:53.060Z,1019.47
2016-07-16T04:16:53.112Z,1019.46
2016-07-16T04:17:53.133Z,1019.57
2016-07-16T04:18:53.159Z,1019.68
2016-07-16T04:19:53.183Z,1019.79
2016-07-16T04:20:53.209Z,1019.7
2016-07-16T04:21:53.233Z,1019.64
2016-07-16T04:22:53.266Z,1019.69
2016-07-16T04:23:53.283Z,1019.7
2016-07-16T04:24:53.309Z,1019.74
2016-07-16T04:25:53.335Z,1019.69
2016-07-16T04:26:53.366Z,1019.64
2016-07-16T04:27:53.386Z,1019.64
2016-07-16T04:28:53.411Z,1019.62
2016-07-16T04:29:53.434Z,1019.6
2016-07-16T04:30:53.461Z,1019.58
2016-07-16T04:32:53.509Z,1019.6
2016-07-16T04:33:53.535Z,1019.58
2016-07-16T04:34:53.563Z,1019.57
2016-07-16T04:35:53.585Z,1019.56
2016-07-16T04:36:53.611Z,1019.53
2016-07-16T04:37:53.637Z,1019.55
2016-07-16T04:38:53.664Z,1019.53
2016-07-16T04:39:53.688Z,1019.55
2016-07-16T04:40:53.712Z,1019.62
2016-07-16T04:41:53.740Z,1019.63
2016-07-16T04:42:53.763Z,1019.78
2016-07-16T04:43:53.789Z,1019.94
2016-07-16T04:44:53.814Z,1020.08
2016-07-16T04:45:53.840Z,1020.08
2016-07-16T04:46:53.868Z,1020.13
2016-07-16T04:48:53.919Z,1020.19
2016-07-16T04:49:53.945Z,1020.15
2016-07-16T04:50:53.975Z,1020.17
2016-07-16T04:51:54.001Z,1020.19
2016-07-16T04:52:54.028Z,1020.15
2016-07-16T04:53:54.059Z,1020.19
2016-07-16T04:54:54.087Z,1020.19
2016-07-16T04:55:54.116Z,1020.23
2016-07-16T04:56:54.143Z,1020.17
2016-07-16T04:57:54.174Z,1020.12
2016-07-16T04:58:54.202Z,1020.13
2016-07-16T04:59:54.234Z,1020.14
2016-07-16T05:00:54.263Z,1020.15
2016-07-16T05:01:54.299Z,1020.13
2016-07-16T05:03:54.356Z,1020.15
2016-07-16T05:04:54.387Z,1020.18
2016-07-16T05:05:54.420Z,1020.16
2016-07-16T05:06:54.449Z,1020.16
2016-07-16T05:07:54.480Z,1020.17
2016-07-16T05:08:54.511Z,1020.15
2016-07-16T05:09:54.543Z,1020.17
2016-07-16T05:10:54.577Z,1020.09
2016-07-16T05:11:54.607Z,1020.08
2016-07-16T05:12:54.639Z,1020.09
2016-07-16T05:13:54.672Z,1020.08
2016-07-16T05:14:54.706Z,1020.07
2016-07-16T05:15:54.737Z,1020.01
2016-07-16T05:16:54.769Z,1020.01
2016-07-16T05:17:54.804Z,1020
2016-07-16T05:18:54.833Z,1020.04
2016-07-16T05:19:54.867Z,1020.05
2016-07-16T05:20:54.900Z,1020.05
2016-07-16T05:21:54.933Z,1020.08
2016-07-16T05:22:54.965Z,1020.02
2016-07-16T05:23:54.997Z,1020
2016-07-16T05:24:55.030Z,1020.02
2016-07-16T05:25:55.064Z,1020.01
2016-07-16T05:26:55.093Z,1020.04
2016-07-16T05:27:55.127Z,1020.07
2016-07-16T05:28:55.160Z,1020.08
2016-07-16T05:29:55.199Z,1020.19
2016-07-16T05:30:55.229Z,1020.18
2016-07-16T05:31:55.258Z,1020.21
2016-07-16T05:32:55.291Z,1020.18
2016-07-16T05:33:55.323Z,1020.1
2016-07-16T05:35:55.392Z,1019.97
2016-07-16T05:36:55.424Z,1019.99
2016-07-16T05:37:55.458Z,1019.87
2016-07-16T05:38:55.491Z,1020.11
2016-07-16T05:39:55.524Z,1019.89
2016-07-16T05:40:55.556Z,1020.15
2016-07-16T05:41:55.590Z,1020.12
2016-07-16T05:42:55.620Z,1019.88
2016-07-16T05:43:55.654Z,1019.77
2016-07-16T05:44:55.687Z,1019.79
2016-07-16T05:45:55.720Z,1019.77
2016-07-16T05:46:55.753Z,1019.79
2016-07-16T05:47:55.783Z,1019.78
2016-07-16T05:48:55.817Z,1019.87
2016-07-16T05:49:55.846Z,1020.28
2016-07-16T05:51:55.913Z,1020.33
2016-07-16T05:52:55.945Z,1019.76
2016-07-16T05:53:55.975Z,1019.9
2016-07-16T05:54:56.009Z,1019.79
2016-07-16T05:55:56.040Z,1020.27
2016-07-16T05:56:56.074Z,1020.36
2016-07-16T05:57:56.104Z,1020.34
2016-07-16T05:58:56.134Z,1020.28
2016-07-16T05:59:56.167Z,1020.27
2016-07-16T06:00:56.199Z,1020.26
2016-07-16T06:01:56.241Z,1020.28
2016-07-16T06:02:56.264Z,1020.13
2016-07-16T06:03:56.298Z,1020.23
2016-07-16T06:04:56.329Z,1020.21
2016-07-16T06:05:56.362Z,1020.27
2016-07-16T06:07:56.427Z,1020.2
2016-07-16T06:08:56.462Z,1020.23
2016-07-16T06:09:56.496Z,1020.25
2016-07-16T06:10:56.526Z,1020.21
2016-07-16T06:11:56.562Z,1020.21
2016-07-16T06:12:56.596Z,1020.25
2016-07-16T06:13:56.629Z,1020.24
2016-07-16T06:14:56.662Z,1020.16
2016-07-16T06:15:56.695Z,1020.24
2016-07-16T06:16:56.728Z,1020.24
2016-07-16T06:17:56.764Z,1020.24
2016-07-16T06:18:56.796Z,1020.31
2016-07-16T06:19:56.832Z,1020.33
2016-07-16T06:20:56.867Z,1020.31
2016-07-16T06:21:56.900Z,1020.34
2016-07-16T06:23:56.969Z,1020.4
2016-07-16T06:24:57.001Z,1020.34
2016-07-16T06:25:57.035Z,1020.3
2016-07-16T06:26:57.071Z,1020.35
2016-07-16T06:27:57.106Z,1020.39
2016-07-16T06:28:57.141Z,1020.43
2016-07-16T06:29:57.175Z,1020.45
2016-07-16T06:30:57.209Z,1020.42
2016-07-16T06:31:57.245Z,1020.36
2016-07-16T06:32:57.277Z,1020.43
2016-07-16T06:33:57.311Z,1020.57
2016-07-16T06:34:57.349Z,1020.63
2016-07-16T06:35:57.383Z,1020.58
2016-07-16T06:36:57.417Z,1020.58
2016-07-16T06:38:57.489Z,1020.55
2016-07-16T06:39:57.524Z,1020.56
2016-07-16T06:40:57.557Z,1020.6
2016-07-16T06:41:57.592Z,1020.58
2016-07-16T06:42:57.628Z,1020.6
2016-07-16T06:43:57.664Z,1020.54
2016-07-16T06:44:57.698Z,1020.55
2016-07-16T06:45:57.734Z,1020.6
2016-07-16T06:46:57.767Z,1020.56
2016-07-16T06:47:57.805Z,1020.61
2016-07-16T06:48:57.841Z,1020.6
2016-07-16T06:49:57.874Z,1020.58
2016-07-16T06:50:57.911Z,1020.61
2016-07-16T06:51:57.945Z,1020.61
2016-07-16T06:52:57.981Z,1020.6
2016-07-16T06:53:58.014Z,1020.62
2016-07-16T06:54:58.050Z,1020.6
2016-07-16T06:55:58.087Z,1020.6
2016-07-16T06:56:58.121Z,1020.62
2016-07-16T06:57:58.165Z,1020.67
2016-07-16T06:58:58.191Z,1020.68
2016-07-16T06:59:58.228Z,1020.74
2016-07-16T07:00:58.264Z,1020.77
2016-07-16T07:01:58.297Z,1020.74
2016-07-16T07:02:58.332Z,1020.73
2016-07-16T07:03:58.369Z,1020.76
2016-07-16T07:04:58.406Z,1020.87
2016-07-16T07:05:58.440Z,1020.86
2016-07-16T07:06:58.476Z,1020.85
2016-07-16T07:07:58.511Z,1020.91
2016-07-16T07:08:58.546Z,1021.12
2016-07-16T07:10:58.617Z,1021.15
2016-07-16T07:11:58.653Z,1021.24
2016-07-16T07:12:58.689Z,1021.29
2016-07-16T07:13:58.723Z,1021.32
2016-07-16T07:14:58.759Z,1021.39
2016-07-16T07:15:58.797Z,1021.49
2016-07-16T07:16:58.833Z,1021.55
2016-07-16T07:17:58.867Z,1021.5
2016-07-16T07:18:58.904Z,1021.55
2016-07-16T07:19:58.938Z,1021.59
2016-07-16T07:20:58.973Z,1021.51
2016-07-16T07:21:59.011Z,1021.51
2016-07-16T07:22:59.046Z,1021.54
2016-07-16T07:23:59.083Z,1021.41
2016-07-16T07:24:59.119Z,1021.49
2016-07-16T07:26:59.191Z,1021.5
2016-07-16T07:27:59.224Z,1021.5
2016-07-16T07:28:59.261Z,1021.62
2016-07-16T07:29:59.297Z,1021.56
2016-07-16T07:30:59.332Z,1021.54
2016-07-16T07:31:59.369Z,1021.49
2016-07-16T07:32:59.404Z,1021.48
2016-07-16T07:33:59.440Z,1021.34
2016-07-16T07:34:59.477Z,1021.3
2016-07-16T07:35:59.515Z,1021.26
2016-07-16T07:36:59.548Z,1021.23
2016-07-16T07:37:59.588Z,1021.13
2016-07-16T07:38:59.620Z,1021.03
2016-07-16T07:39:59.658Z,1020.87
2016-07-16T07:40:59.693Z,1020.81
2016-07-16T07:42:59.766Z,1020.75
2016-07-16T07:43:59.803Z,1020.69
2016-07-16T07:44:59.844Z,1020.66
2016-07-16T07:45:59.875Z,1020.58
2016-07-16T07:46:59.910Z,1020.55
2016-07-16T07:47:59.944Z,1020.51
2016-07-16T07:48:59.980Z,1020.44
2016-07-16T07:50:00.018Z,1020.41
2016-07-16T07:51:00.054Z,1020.39
2016-07-16T07:52:00.091Z,1020.35
2016-07-16T07:53:00.124Z,1020.36
2016-07-16T07:54:00.160Z,1020.27
2016-07-16T07:55:00.196Z,1020.2
2016-07-16T07:56:00.235Z,1020.22
2016-07-16T07:57:00.267Z,1020.19
2016-07-16T07:59:00.341Z,1020.11
2016-07-16T08:00:00.375Z,1020.09
2016-07-16T08:01:00.411Z,1020.02
2016-07-16T08:02:00.448Z,1019.88
2016-07-16T08:03:00.483Z,1019.81
2016-07-16T08:04:00.518Z,1019.77
2016-07-16T08:05:00.556Z,1019.77
2016-07-16T08:06:00.591Z,1019.74
2016-07-16T08:07:00.629Z,1019.78
2016-07-16T08:08:00.661Z,1019.85
2016-07-16T08:09:00.697Z,1019.74
2016-07-16T08:10:00.734Z,1019.85
2016-07-16T08:11:00.770Z,1019.85
2016-07-16T08:12:00.805Z,1019.88
2016-07-16T08:14:00.877Z,1019.95
2016-07-16T08:15:00.913Z,1019.86
2016-07-16T08:16:00.948Z,1019.56
2016-07-16T08:17:00.983Z,1019.5
2016-07-16T08:18:01.017Z,1019.9
2016-07-16T08:19:01.052Z,1019.97
2016-07-16T08:20:01.086Z,1019.85
2016-07-16T08:21:01.121Z,1020
2016-07-16T08:22:01.157Z,1019.99
2016-07-16T08:23:01.193Z,1019.91
2016-07-16T08:24:01.225Z,1019.96
2016-07-16T08:25:01.261Z,1019.98
2016-07-16T08:26:01.295Z,1020.07
2016-07-16T08:27:01.332Z,1020.07
2016-07-16T08:28:01.365Z,1020.02
2016-07-16T08:29:01.400Z,1019.99
2016-07-16T08:30:01.434Z,1019.96
2016-07-16T08:31:01.469Z,1019.85
2016-07-16T08:32:01.505Z,1019.83
2016-07-16T08:33:01.538Z,1019.77
2016-07-16T08:34:01.574Z,1020.07
2016-07-16T08:35:01.609Z,1020.16
2016-07-16T08:36:01.646Z,1020.2
2016-07-16T08:37:01.681Z,1020.21
2016-07-16T08:38:01.713Z,1020.18
2016-07-16T08:39:01.750Z,1020.1
2016-07-16T08:40:01.786Z,1019.48
2016-07-16T08:41:01.822Z,1019.43
2016-07-16T08:42:01.855Z,1019.99
2016-07-16T08:43:01.888Z,1019.97
2016-07-16T08:44:01.923Z,1019.96
2016-07-16T08:46:01.991Z,1019.37
2016-07-16T08:47:02.028Z,1019.43
2016-07-16T08:48:02.061Z,1019.9
2016-07-16T08:49:02.097Z,1019.83
2016-07-16T08:50:02.133Z,1019.81
2016-07-16T08:51:02.165Z,1019.8
2016-07-16T08:52:02.199Z,1019.73
2016-07-16T08:53:02.234Z,1019.53
2016-07-16T08:54:02.267Z,1019.69
2016-07-16T08:55:02.303Z,1019.76
2016-07-16T08:56:02.339Z,1019.37
2016-07-16T08:57:02.371Z,1019.45
2016-07-16T08:58:02.407Z,1019.49
2016-07-16T08:59:02.440Z,1019.5
2016-07-16T09:00:02.474Z,1019.5
2016-07-16T09:02:02.542Z,1019.33
2016-07-16T09:03:02.577Z,1019.36
2016-07-16T09:04:02.612Z,1019.31
2016-07-16T09:05:02.644Z,1019.3
2016-07-16T09:06:02.678Z,1019.31
2016-07-16T09:07:02.715Z,1019.31
2016-07-16T09:08:02.748Z,1019.3
2016-07-16T09:09:02.781Z,1019.27
2016-07-16T09:10:02.817Z,1019.21
2016-07-16T09:11:02.853Z,1019.28
2016-07-16T09:12:02.884Z,1019.29
2016-07-16T09:13:02.919Z,1019.31
2016-07-16T09:14:02.953Z,1019.31
2016-07-16T09:15:02.987Z,1019.33
2016-07-16T09:16:03.020Z,1019.25
2016-07-16T09:18:03.090Z,1019.35
2016-07-16T09:19:03.123Z,1019.35
2016-07-16T09:20:03.158Z,1019.28
2016-07-16T09:21:03.191Z,1019.31
2016-07-16T09:22:03.225Z,1019.33
2016-07-16T09:23:03.261Z,1019.37
2016-07-16T09:24:03.294Z,1019.32
2016-07-16T09:25:03.326Z,1019.34
2016-07-16T09:26:03.362Z,1019.33
2016-07-16T09:27:03.397Z,1019.31
2016-07-16T09:28:03.430Z,1019.26
2016-07-16T09:29:03.463Z,1019.26
2016-07-16T09:30:03.499Z,1019.28
2016-07-16T09:31:03.533Z,1019.28
2016-07-16T09:32:03.567Z,1019.22
2016-07-16T09:34:03.632Z,1019.15
2016-07-16T09:35:03.669Z,1019.13
2016-07-16T09:36:03.699Z,1019.08
2016-07-16T09:37:03.733Z,1019.09
2016-07-16T09:38:03.768Z,1019.08
2016-07-16T09:39:03.800Z,1019.04
2016-07-16T09:40:03.837Z,1018.99
2016-07-16T09:41:03.871Z,1019
2016-07-16T09:42:03.905Z,1018.99
2016-07-16T09:43:03.936Z,1019.02
2016-07-16T09:44:03.970Z,1018.99
2016-07-16T09:45:04.004Z,1019.04
2016-07-16T09:46:04.040Z,1019.02
2016-07-16T09:47:04.071Z,1018.96
2016-07-16T09:49:04.140Z,1018.92
2016-07-16T09:50:04.173Z,1018.96
2016-07-16T09:51:04.207Z,1018.99
2016-07-16T09:52:04.242Z,1018.98
2016-07-16T09:53:04.274Z,1018.95
2016-07-16T09:54:04.309Z,1018.93
2016-07-16T09:55:04.346Z,1018.95
2016-07-16T09:56:04.374Z,1018.92
2016-07-16T09:57:04.408Z,1018.94
2016-07-16T09:58:04.443Z,1018.98
2016-07-16T09:59:04.474Z,1018.99
2016-07-16T10:00:04.509Z,1018.92
2016-07-16T10:01:04.542Z,1018.93
2016-07-16T10:02:04.576Z,1018.98
2016-07-16T10:03:04.611Z,1018.98
2016-07-16T10:04:04.641Z,1018.93
2016-07-16T10:05:04.674Z,1018.9
2016-07-16T10:06:04.710Z,1018.93
2016-07-16T10:07:04.743Z,1018.93
2016-07-16T10:08:04.776Z,1018.89
2016-07-16T10:09:04.807Z,1018.85
2016-07-16T10:10:04.840Z,1018.85
2016-07-16T10:11:04.874Z,1018.83
2016-07-16T10:12:04.907Z,1018.81
2016-07-16T10:13:04.941Z,1018.8
2016-07-16T10:14:04.974Z,1018.73
2016-07-16T10:15:05.008Z,1018.67
2016-07-16T10:16:05.038Z,1018.67
2016-07-16T10:17:05.075Z,1018.73
2016-07-16T10:18:05.107Z,1018.71
2016-07-16T10:19:05.140Z,1018.75
2016-07-16T10:21:05.207Z,1018.71
2016-07-16T10:22:05.239Z,1018.71
2016-07-16T10:23:05.269Z,1018.66
2016-07-16T10:24:05.302Z,1018.62
2016-07-16T10:25:05.338Z,1018.61
2016-07-16T10:26:05.368Z,1018.67
2016-07-16T10:27:05.403Z,1018.64
2016-07-16T10:28:05.437Z,1018.6
2016-07-16T10:29:05.467Z,1018.56
2016-07-16T10:30:05.501Z,1018.55
2016-07-16T10:31:05.534Z,1018.55
2016-07-16T10:32:05.567Z,1018.55
2016-07-16T10:33:05.601Z,1018.54
2016-07-16T10:34:05.632Z,1018.5
2016-07-16T10:35:05.663Z,1018.49
2016-07-16T10:37:05.730Z,1018.48
2016-07-16T10:38:05.761Z,1018.51
2016-07-16T10:39:05.795Z,1018.51
2016-07-16T10:40:05.827Z,1018.5
2016-07-16T10:41:05.858Z,1018.53
2016-07-16T10:42:05.895Z,1018.57
2016-07-16T10:43:05.926Z,1018.59
2016-07-16T10:44:05.959Z,1018.57
2016-07-16T10:45:05.988Z,1018.56
2016-07-16T10:46:06.023Z,1018.49
2016-07-16T10:47:06.056Z,1018.5
2016-07-16T10:48:06.086Z,1018.54
2016-07-16T10:49:06.120Z,1018.53
2016-07-16T10:50:06.151Z,1018.5
2016-07-16T10:51:06.182Z,1018.53
2016-07-16T10:53:06.247Z,1018.53
2016-07-16T10:54:06.280Z,1018.55
2016-07-16T10:55:06.312Z,1018.49
2016-07-16T10:56:06.347Z,1018.46
2016-07-16T10:57:06.378Z,1018.43
2016-07-16T10:58:06.408Z,1018.37
2016-07-16T10:59:06.443Z,1018.39
2016-07-16T11:00:06.473Z,1018.4
2016-07-16T11:01:06.507Z,1018.32
2016-07-16T11:02:06.539Z,1018.32
2016-07-16T11:03:06.568Z,1018.31
2016-07-16T11:04:06.603Z,1018.33
2016-07-16T11:05:06.635Z,1018.32
2016-07-16T11:06:06.667Z,1018.3
2016-07-16T11:07:06.699Z,1018.27
2016-07-16T11:09:06.761Z,1018.33
2016-07-16T11:10:06.793Z,1018.34
2016-07-16T11:11:06.824Z,1018.36
2016-07-16T11:12:06.859Z,1018.37
2016-07-16T11:13:06.889Z,1018.3
2016-07-16T11:14:06.921Z,1018.29
2016-07-16T11:15:06.953Z,1018.29
2016-07-16T11:16:06.986Z,1018.25
2016-07-16T11:17:07.017Z,1018.21
2016-07-16T11:18:07.052Z,1018.29
2016-07-16T11:19:07.078Z,1018.27
2016-07-16T11:20:07.117Z,1018.24
2016-07-16T11:21:07.143Z,1018.21
2016-07-16T11:22:07.174Z,1018.21
2016-07-16T11:24:07.238Z,1018.29
2016-07-16T11:25:07.271Z,1018.28
2016-07-16T11:26:07.300Z,1018.25
2016-07-16T11:27:07.334Z,1018.27
2016-07-16T11:28:07.365Z,1018.23
2016-07-16T11:29:07.397Z,1018.19
2016-07-16T11:30:07.429Z,1018.22
2016-07-16T11:31:07.460Z,1018.22
2016-07-16T11:32:07.489Z,1018.21
2016-07-16T11:33:07.521Z,1018.21
2016-07-16T11:34:07.555Z,1018.16
2016-07-16T11:35:07.583Z,1018.19
2016-07-16T11:36:07.615Z,1018.17
2016-07-16T11:37:07.646Z,1018.2
2016-07-16T11:38:07.678Z,1018.12
2016-07-16T11:39:07.709Z,1018.13
2016-07-16T11:40:07.743Z,1018.1
2016-07-16T11:41:07.772Z,1018.05
2016-07-16T11:42:07.803Z,1018.05
2016-07-16T11:43:07.833Z,1018.03
2016-07-16T11:44:07.866Z,1018.07
2016-07-16T11:45:07.899Z,1018.08
2016-07-16T11:46:07.928Z,1018.03
2016-07-16T11:47:07.961Z,1017.99
2016-07-16T11:48:07.992Z,1018
2016-07-16T11:49:08.021Z,1017.98
2016-07-16T11:50:08.053Z,1017.91
2016-07-16T11:51:08.086Z,1017.91
2016-07-16T11:52:08.115Z,1017.94
2016-07-16T11:53:08.145Z,1017.93
2016-07-16T11:54:08.179Z,1017.89
2016-07-16T11:56:08.238Z,1017.88
2016-07-16T11:57:08.270Z,1017.96
2016-07-16T11:58:08.301Z,1018
2016-07-16T11:59:08.345Z,1017.98
2016-07-16T12:00:08.366Z,1017.99
2016-07-16T12:01:08.397Z,1017.97
2016-07-16T12:02:08.428Z,1017.96
2016-07-16T12:03:08.457Z,1017.9
2016-07-16T12:04:08.490Z,1017.88
2016-07-16T12:05:08.519Z,1017.9
2016-07-16T12:06:08.552Z,1017.86
2016-07-16T12:07:08.581Z,1017.86
2016-07-16T12:08:08.628Z,1017.9
2016-07-16T12:09:08.644Z,1017.84
2016-07-16T12:10:08.673Z,1017.78
2016-07-16T12:12:08.744Z,1017.8
2016-07-16T12:13:08.768Z,1017.8
2016-07-16T12:14:08.799Z,1017.77
2016-07-16T12:15:08.828Z,1017.8
2016-07-16T12:16:08.858Z,1017.74
2016-07-16T12:17:08.893Z,1017.77
2016-07-16T12:18:08.923Z,1017.76
2016-07-16T12:19:08.954Z,1017.67
2016-07-16T12:20:08.984Z,1017.69
2016-07-16T12:21:09.014Z,1017.69
2016-07-16T12:22:09.045Z,1017.63
2016-07-16T12:23:09.079Z,1017.61
2016-07-16T12:24:09.109Z,1017.59
2016-07-16T12:25:09.139Z,1017.6
2016-07-16T12:26:09.171Z,1017.58
2016-07-16T12:28:09.229Z,1017.54
2016-07-16T12:29:09.261Z,1017.61
2016-07-16T12:30:09.299Z,1017.6
2016-07-16T12:31:09.322Z,1017.6
2016-07-16T12:32:09.353Z,1017.55
2016-07-16T12:33:09.386Z,1017.5
2016-07-16T12:34:09.418Z,1017.52
2016-07-16T12:35:09.447Z,1017.51
2016-07-16T12:36:09.477Z,1017.49
2016-07-16T12:37:09.508Z,1017.47
2016-07-16T12:38:09.539Z,1017.5
2016-07-16T12:39:09.571Z,1017.44
2016-07-16T12:40:09.600Z,1017.46
2016-07-16T12:41:09.633Z,1017.46
2016-07-16T12:42:09.662Z,1017.43
2016-07-16T12:44:09.723Z,1017.45
2016-07-16T12:45:09.754Z,1017.41
2016-07-16T12:46:09.783Z,1017.42
2016-07-16T12:47:09.818Z,1017.4
2016-07-16T12:48:09.847Z,1017.38
2016-07-16T12:49:09.875Z,1017.4
2016-07-16T12:50:09.908Z,1017.41